createdAt,value
2023-05-17T00:04:11.174Z,32.00
2023-05-17T00:09:12.642Z,32.00
2023-05-17T00:14:14.239Z,32.10
2023-05-17T00:19:15.865Z,32.10
2023-05-17T00:24:17.513Z,32.10
2023-05-17T00:29:18.956Z,32.20
2023-05-17T00:34:20.399Z,32.20
2023-05-17T00:39:21.836Z,32.20
2023-05-17T00:44:23.321Z,32.30
2023-05-17T00:49:24.756Z,32.40
2023-05-17T00:54:26.268Z,32.20
2023-05-17T00:59:27.765Z,32.40
2023-05-17T01:04:29.258Z,32.40
2023-05-17T01:09:30.699Z,32.40
2023-05-17T01:14:32.153Z,32.40
2023-05-17T01:19:33.766Z,32.50
2023-05-17T01:24:35.390Z,32.50
2023-05-17T01:29:36.851Z,32.50
2023-05-17T01:34:38.318Z,32.60
2023-05-17T01:39:39.772Z,32.60
2023-05-17T01:44:41.331Z,32.60
2023-05-17T01:49:42.806Z,32.60
2023-05-17T01:54:44.281Z,32.70
2023-05-17T01:59:45.764Z,32.80
2023-05-17T02:04:47.229Z,32.80
2023-05-17T02:09:48.741Z,32.70
2023-05-17T02:14:50.177Z,32.80
2023-05-17T02:19:51.659Z,32.70
2023-05-17T02:24:53.120Z,32.80
2023-05-17T02:29:54.594Z,32.80
2023-05-17T02:34:56.042Z,32.80
2023-05-17T02:39:57.505Z,32.80
2023-05-17T02:44:58.961Z,32.90
2023-05-17T02:50:00.444Z,32.90
2023-05-17T02:55:01.903Z,32.90
2023-05-17T03:00:03.372Z,32.90
2023-05-17T03:05:04.974Z,33.00
2023-05-17T03:10:06.480Z,33.00
2023-05-17T03:15:07.934Z,33.00
2023-05-17T03:20:09.369Z,33.10
2023-05-17T03:25:10.839Z,33.10
2023-05-17T03:30:12.294Z,33.10
2023-05-17T03:35:13.757Z,33.20
2023-05-17T03:40:15.232Z,33.20
2023-05-17T03:45:16.706Z,33.20
2023-05-17T03:50:18.170Z,33.30
2023-05-17T03:55:19.639Z,33.30
2023-05-17T04:00:21.090Z,33.30
2023-05-17T04:05:22.650Z,33.40
2023-05-17T04:10:24.265Z,33.40
2023-05-17T04:15:25.735Z,33.30
2023-05-17T04:20:27.257Z,33.50
2023-05-17T04:25:28.886Z,33.60
2023-05-17T04:30:30.525Z,34.20
2023-05-17T04:35:32.004Z,33.60
2023-05-17T04:40:33.463Z,33.70
2023-05-17T04:45:34.922Z,33.80
2023-05-17T04:50:36.389Z,33.70
2023-05-17T04:55:37.913Z,33.70
2023-05-17T05:00:39.363Z,33.80
2023-05-17T05:05:40.829Z,33.80
2023-05-17T05:10:42.284Z,33.90
2023-05-17T05:15:43.740Z,33.90
2023-05-17T05:20:45.249Z,33.90
2023-05-17T05:25:46.678Z,34.00
2023-05-17T05:30:48.142Z,33.90
2023-05-17T05:35:49.586Z,34.00
2023-05-17T05:40:51.034Z,34.00
2023-05-17T05:45:52.509Z,33.90
2023-05-17T05:50:53.965Z,33.90
2023-05-17T05:55:55.420Z,33.90
2023-05-17T06:00:56.900Z,33.70
2023-05-17T06:05:58.404Z,33.70
2023-05-17T06:10:59.913Z,33.50
2023-05-17T06:16:01.465Z,33.40
2023-05-17T06:21:02.902Z,33.30
2023-05-17T06:26:07.140Z,33.10
2023-05-17T06:31:08.655Z,33.10
2023-05-17T06:36:10.142Z,33.00
2023-05-17T06:41:11.619Z,33.00
2023-05-17T06:46:13.074Z,33.00
2023-05-17T06:51:14.533Z,33.00
2023-05-17T06:56:15.976Z,32.90
2023-05-17T07:01:17.419Z,32.90
2023-05-17T07:06:18.896Z,32.80
2023-05-17T07:11:20.366Z,32.80
2023-05-17T07:16:21.827Z,32.70
2023-05-17T07:21:23.318Z,32.70
2023-05-17T07:26:24.800Z,32.70
2023-05-17T07:31:26.252Z,32.70
2023-05-17T07:36:27.746Z,32.70
2023-05-17T07:41:29.491Z,32.60
2023-05-17T07:46:31.114Z,33.20
2023-05-17T07:51:32.633Z,32.50
2023-05-17T07:56:34.100Z,32.30
2023-05-17T08:01:38.642Z,32.20
2023-05-17T08:06:40.096Z,32.00
2023-05-17T08:11:42.668Z,31.90
2023-05-17T08:16:44.139Z,31.70
2023-05-17T08:21:45.605Z,32.40
2023-05-17T08:26:47.059Z,31.20
2023-05-17T08:31:48.524Z,31.10
2023-05-17T08:36:50.042Z,31.10
2023-05-17T08:41:51.521Z,31.00
2023-05-17T08:46:52.980Z,30.80
2023-05-17T08:51:54.434Z,30.80
2023-05-17T08:56:55.869Z,30.90
2023-05-17T09:01:57.308Z,30.70
2023-05-17T09:06:58.734Z,30.80
2023-05-17T09:12:00.194Z,30.80
2023-05-17T09:17:01.645Z,30.70
2023-05-17T09:22:03.119Z,30.60
2023-05-17T09:27:04.559Z,30.50
2023-05-17T09:32:06.017Z,30.40
2023-05-17T09:37:07.483Z,30.30
2023-05-17T09:42:08.928Z,30.80
2023-05-17T09:47:10.403Z,30.30
2023-05-17T09:52:11.871Z,30.20
2023-05-17T09:57:13.325Z,30.00
2023-05-17T10:02:14.784Z,30.00
2023-05-17T10:07:16.254Z,30.00
2023-05-17T10:12:17.693Z,30.00
2023-05-17T10:17:19.142Z,29.90
2023-05-17T10:22:23.080Z,29.80
2023-05-17T10:27:25.265Z,29.80
2023-05-17T10:32:26.841Z,29.70
2023-05-17T10:37:28.488Z,29.70
2023-05-17T10:42:30.009Z,29.80
2023-05-17T10:47:31.558Z,29.60
2023-05-17T10:52:32.993Z,29.70
2023-05-17T10:57:49.222Z,29.70
2023-05-17T11:02:51.897Z,29.70
2023-05-17T11:07:53.370Z,29.40
2023-05-17T11:12:54.823Z,29.40
2023-05-17T11:17:56.353Z,29.50
2023-05-17T11:22:57.910Z,29.50
2023-05-17T11:27:59.361Z,29.50
2023-05-17T11:33:00.961Z,29.40
2023-05-17T11:38:02.503Z,29.20
2023-05-17T11:43:03.954Z,28.70
2023-05-17T11:48:05.435Z,28.90
2023-05-17T11:53:06.962Z,29.00
2023-05-17T11:58:08.406Z,29.00
2023-05-17T12:03:10.164Z,29.10
2023-05-17T12:08:11.641Z,29.10
2023-05-17T12:13:13.111Z,29.10
2023-05-17T12:18:14.621Z,29.20
2023-05-17T12:23:16.102Z,29.10
2023-05-17T12:28:17.552Z,29.10
2023-05-17T12:33:19.070Z,29.00
2023-05-17T12:38:20.548Z,28.90
2023-05-17T12:43:22.000Z,28.90
2023-05-17T12:48:23.447Z,28.90
2023-05-17T12:53:24.908Z,28.90
2023-05-17T12:58:26.368Z,28.90
2023-05-17T13:03:27.930Z,28.90
2023-05-17T13:08:29.500Z,28.80
2023-05-17T13:13:30.962Z,28.80
2023-05-17T13:18:32.490Z,28.80
2023-05-17T13:23:33.980Z,28.40
2023-05-17T13:28:35.432Z,28.20
2023-05-17T13:33:36.939Z,28.50
2023-05-17T13:38:38.509Z,28.50
2023-05-17T13:43:39.994Z,28.40
2023-05-17T13:48:42.881Z,28.30
2023-05-17T13:53:44.656Z,28.40
2023-05-17T13:58:46.180Z,28.40
2023-05-17T14:03:47.685Z,28.10
2023-05-17T14:08:49.184Z,28.40
2023-05-17T14:13:50.759Z,29.00
2023-05-17T14:18:52.559Z,28.50
2023-05-17T14:23:54.273Z,28.50
2023-05-17T14:28:55.839Z,28.10
2023-05-17T14:33:57.514Z,28.00
2023-05-17T14:38:59.105Z,27.80
2023-05-17T14:44:00.630Z,28.10
2023-05-17T14:49:02.094Z,28.20
2023-05-17T14:54:03.610Z,28.30
2023-05-17T14:59:05.091Z,28.20
2023-05-17T15:04:06.565Z,28.20
2023-05-17T15:09:08.075Z,28.10
2023-05-17T15:14:09.549Z,27.60
2023-05-17T15:19:11.085Z,27.80
2023-05-17T15:24:13.929Z,28.50
2023-05-17T15:29:16.357Z,28.40
2023-05-17T15:34:17.925Z,28.30
2023-05-17T15:39:19.536Z,28.00
2023-05-17T15:44:21.013Z,28.10
2023-05-17T15:49:22.472Z,28.20
2023-05-17T15:54:24.013Z,28.50
2023-05-17T15:59:25.584Z,28.00
2023-05-17T16:04:27.066Z,27.40
2023-05-17T16:09:28.512Z,27.40
2023-05-17T16:14:29.990Z,27.40
2023-05-17T16:19:31.515Z,27.70
2023-05-17T16:24:33.053Z,27.60
2023-05-17T16:29:34.506Z,27.70
2023-05-17T16:34:36.061Z,27.70
2023-05-17T16:39:37.599Z,27.90
2023-05-17T16:44:39.130Z,27.60
2023-05-17T16:49:40.711Z,27.90
2023-05-17T16:54:42.210Z,27.70
2023-05-17T16:59:43.872Z,28.10
2023-05-17T17:04:45.415Z,28.90
2023-05-17T17:09:46.876Z,29.20
2023-05-17T17:14:48.329Z,29.00
2023-05-17T17:19:49.829Z,29.00
2023-05-17T17:24:51.294Z,29.00
2023-05-17T17:29:52.730Z,29.40
2023-05-17T17:34:54.192Z,29.50
2023-05-17T17:39:55.759Z,29.60
2023-05-17T17:44:57.196Z,30.00
2023-05-17T17:49:58.714Z,29.80
2023-05-17T17:55:00.235Z,29.80
2023-05-17T18:00:01.664Z,29.90
2023-05-17T18:05:03.131Z,30.00
2023-05-17T18:10:04.636Z,30.40
2023-05-17T18:15:06.126Z,30.00
2023-05-17T18:20:07.596Z,30.00
2023-05-17T18:25:09.076Z,31.00
2023-05-17T18:30:10.541Z,30.80
2023-05-17T18:35:12.185Z,30.40
2023-05-17T18:40:13.769Z,30.00
2023-05-17T18:45:15.334Z,29.80
2023-05-17T18:50:16.801Z,29.70
2023-05-17T18:55:18.300Z,29.70
2023-05-17T19:00:19.877Z,29.90
2023-05-17T19:05:21.411Z,30.00
2023-05-17T19:10:22.930Z,30.20
2023-05-17T19:15:24.408Z,30.20
2023-05-17T19:20:25.850Z,30.00
2023-05-17T19:25:27.355Z,30.60
2023-05-17T19:30:30.415Z,30.30
2023-05-17T19:35:33.960Z,29.90
2023-05-17T19:40:35.437Z,29.90
2023-05-17T19:45:36.907Z,30.00
2023-05-17T19:50:38.374Z,30.00
2023-05-17T19:55:39.855Z,30.00
2023-05-17T20:00:41.318Z,29.70
2023-05-17T20:05:42.773Z,29.50
2023-05-17T20:10:44.222Z,29.30
2023-05-17T20:15:45.660Z,29.20
2023-05-17T20:20:47.098Z,28.90
2023-05-17T20:25:48.522Z,29.20
2023-05-17T20:30:49.969Z,29.20
2023-05-17T20:35:51.427Z,29.10
2023-05-17T20:40:52.868Z,29.40
2023-05-17T20:45:54.357Z,29.40
2023-05-17T20:50:55.869Z,29.40
2023-05-17T20:55:57.338Z,29.40
2023-05-17T21:00:58.952Z,29.10
2023-05-17T21:06:00.484Z,29.30
2023-05-17T21:11:01.948Z,29.40
2023-05-17T21:16:03.444Z,29.40
2023-05-17T21:21:04.922Z,29.40
2023-05-17T21:26:06.479Z,29.50
2023-05-17T21:31:08.004Z,29.60
2023-05-17T21:36:09.490Z,29.60
2023-05-17T21:41:10.930Z,29.60
2023-05-17T21:46:12.377Z,29.50
2023-05-17T21:51:13.849Z,29.60
2023-05-17T21:56:15.313Z,29.70
2023-05-17T22:01:16.816Z,29.60
2023-05-17T22:06:18.300Z,29.70
2023-05-17T22:11:19.761Z,29.90
2023-05-17T22:16:21.256Z,30.00
2023-05-17T22:21:22.730Z,30.00
2023-05-17T22:26:24.165Z,29.40
2023-05-17T22:31:25.638Z,29.30
2023-05-17T22:36:27.126Z,29.30
2023-05-17T22:41:28.608Z,29.20
2023-05-17T22:46:30.084Z,29.10
2023-05-17T22:51:31.557Z,29.10
2023-05-17T22:56:33.077Z,29.20
2023-05-17T23:01:34.654Z,29.00
2023-05-17T23:06:36.155Z,29.00
2023-05-17T23:11:37.596Z,28.90
2023-05-17T23:16:39.090Z,28.90
2023-05-17T23:21:40.553Z,29.00
2023-05-17T23:26:41.989Z,28.90
2023-05-17T23:31:43.503Z,28.90
2023-05-17T23:36:44.977Z,29.00
2023-05-17T23:41:46.443Z,28.80
2023-05-17T23:46:47.939Z,28.90
2023-05-17T23:51:49.446Z,29.40
2023-05-17T23:56:50.904Z,28.90
